createdAt,value
2023-07-04T00:01:52.779Z,11.59
2023-07-04T00:04:23.973Z,11.59
2023-07-04T00:06:53.245Z,11.61
2023-07-04T00:09:21.970Z,11.61
2023-07-04T00:11:52.655Z,11.58
2023-07-04T00:14:21.400Z,11.62
2023-07-04T00:16:50.273Z,11.58
2023-07-04T00:19:19.110Z,11.56
2023-07-04T00:21:49.345Z,11.55
2023-07-04T00:24:18.690Z,11.56
2023-07-04T00:26:47.820Z,11.54
2023-07-04T00:29:16.693Z,11.50
2023-07-04T00:31:45.664Z,11.50
2023-07-04T00:34:15.687Z,11.49
2023-07-04T00:36:44.256Z,11.50
2023-07-04T00:39:14.270Z,11.49
2023-07-04T00:41:43.681Z,11.46
2023-07-04T00:44:25.209Z,11.43
2023-07-04T00:47:02.708Z,11.40
2023-07-04T00:49:39.376Z,11.35
2023-07-04T00:52:12.382Z,11.40
2023-07-04T00:54:46.316Z,11.42
2023-07-04T00:57:16.123Z,11.34
2023-07-04T00:59:48.059Z,11.31
2023-07-04T01:02:19.850Z,11.33
2023-07-04T01:04:50.125Z,11.32
2023-07-04T01:07:33.703Z,11.33
2023-07-04T01:10:11.542Z,11.33
2023-07-04T01:12:41.737Z,11.34
2023-07-04T01:15:11.942Z,11.33
2023-07-04T01:17:43.901Z,11.33
2023-07-04T01:20:17.361Z,11.36
2023-07-04T01:22:56.232Z,11.44
2023-07-04T01:25:33.126Z,11.37
2023-07-04T01:28:04.815Z,11.34
2023-07-04T01:30:36.972Z,11.35
2023-07-04T01:33:05.965Z,11.41
2023-07-04T01:35:34.937Z,11.41
2023-07-04T01:38:04.474Z,11.44
2023-07-04T01:40:35.542Z,11.46
2023-07-04T01:43:07.204Z,11.48
2023-07-04T01:45:35.974Z,11.52
2023-07-04T01:48:05.328Z,11.62
2023-07-04T01:50:35.249Z,11.61
2023-07-04T01:53:03.769Z,11.63
2023-07-04T01:55:32.412Z,11.68
2023-07-04T01:58:02.181Z,11.69
2023-07-04T02:00:32.891Z,11.68
2023-07-04T02:03:01.766Z,11.76
2023-07-04T02:05:30.351Z,11.78
2023-07-04T02:08:00.096Z,11.77
2023-07-04T02:10:28.720Z,11.74
2023-07-04T02:12:57.319Z,11.72
2023-07-04T02:15:26.450Z,11.72
2023-07-04T02:17:56.641Z,11.75
2023-07-04T02:20:28.666Z,11.74
2023-07-04T02:22:57.139Z,11.75
2023-07-04T02:25:25.751Z,11.74
2023-07-04T02:27:54.698Z,11.73
2023-07-04T02:30:23.421Z,11.80
2023-07-04T02:32:52.093Z,11.79
2023-07-04T02:35:22.191Z,11.77
2023-07-04T02:37:51.060Z,11.81
2023-07-04T02:40:19.904Z,11.85
2023-07-04T02:42:49.624Z,11.87
2023-07-04T02:45:18.449Z,11.87
2023-07-04T02:47:47.707Z,11.96
2023-07-04T02:50:23.058Z,11.97
2023-07-04T02:52:51.765Z,11.97
2023-07-04T02:55:20.749Z,11.97
2023-07-04T02:57:49.363Z,11.99
2023-07-04T03:00:19.789Z,12.05
2023-07-04T03:02:50.950Z,12.05
2023-07-04T03:05:20.126Z,12.09
2023-07-04T03:07:51.088Z,12.10
2023-07-04T03:10:21.595Z,12.12
2023-07-04T03:12:50.637Z,12.13
2023-07-04T03:15:20.494Z,12.20
2023-07-04T03:17:53.071Z,12.21
2023-07-04T03:20:23.134Z,12.19
2023-07-04T03:22:56.809Z,12.22
2023-07-04T03:25:28.216Z,12.26
2023-07-04T03:27:59.727Z,12.26
2023-07-04T03:30:31.097Z,12.27
2023-07-04T03:33:07.243Z,12.32
2023-07-04T03:35:53.474Z,12.31
2023-07-04T03:38:28.848Z,12.34
2023-07-04T03:40:58.278Z,12.34
2023-07-04T03:43:27.765Z,12.46
2023-07-04T03:45:56.814Z,12.52
2023-07-04T03:48:25.663Z,12.49
2023-07-04T03:50:54.825Z,12.50
2023-07-04T03:53:23.687Z,12.48
2023-07-04T03:55:54.666Z,12.54
2023-07-04T03:58:24.653Z,12.56
2023-07-04T04:00:54.052Z,12.59
2023-07-04T04:03:23.029Z,12.65
2023-07-04T04:05:51.966Z,12.75
2023-07-04T04:08:21.006Z,12.76
2023-07-04T04:10:49.814Z,12.86
2023-07-04T04:13:20.159Z,12.83
2023-07-04T04:15:49.121Z,12.85
2023-07-04T04:18:17.822Z,12.90
2023-07-04T04:20:46.712Z,12.90
2023-07-04T04:23:16.501Z,12.92
2023-07-04T04:25:47.129Z,12.91
2023-07-04T04:28:16.123Z,12.88
2023-07-04T04:30:46.264Z,12.87
2023-07-04T04:33:17.707Z,12.88
2023-07-04T04:35:47.211Z,12.91
2023-07-04T04:38:16.832Z,13.04
2023-07-04T04:40:45.857Z,13.25
2023-07-04T04:43:14.586Z,13.38
2023-07-04T04:45:44.991Z,13.37
2023-07-04T04:48:20.481Z,13.40
2023-07-04T04:50:49.218Z,13.55
2023-07-04T04:53:17.912Z,13.66
2023-07-04T04:55:46.739Z,13.65
2023-07-04T04:58:15.401Z,13.60
2023-07-04T05:00:45.529Z,13.54
2023-07-04T05:03:15.826Z,13.60
2023-07-04T05:05:44.632Z,13.71
2023-07-04T05:08:13.422Z,13.85
2023-07-04T05:10:42.255Z,13.99
2023-07-04T05:13:10.871Z,14.08
2023-07-04T05:15:39.691Z,14.12
2023-07-04T05:18:08.445Z,14.14
2023-07-04T05:20:39.067Z,14.19
2023-07-04T05:23:08.426Z,14.21
2023-07-04T05:25:37.110Z,14.27
2023-07-04T05:28:06.055Z,14.34
2023-07-04T05:30:34.828Z,14.44
2023-07-04T05:33:03.680Z,14.47
2023-07-04T05:35:32.324Z,14.52
2023-07-04T05:38:02.552Z,14.57
2023-07-04T05:40:31.144Z,14.67
2023-07-04T05:42:59.704Z,14.72
2023-07-04T05:45:28.488Z,14.77
2023-07-04T05:47:57.372Z,14.82
2023-07-04T05:50:25.960Z,14.93
2023-07-04T05:52:55.075Z,15.08
2023-07-04T05:55:25.130Z,15.11
2023-07-04T05:57:53.745Z,15.10
2023-07-04T06:00:22.848Z,15.19
2023-07-04T06:02:51.916Z,15.31
2023-07-04T06:05:20.638Z,15.31
2023-07-04T06:07:50.256Z,15.32
2023-07-04T06:10:19.003Z,15.35
2023-07-04T06:12:48.974Z,15.42
2023-07-04T06:15:17.735Z,15.47
2023-07-04T06:17:46.501Z,15.51
2023-07-04T06:20:15.151Z,15.63
2023-07-04T06:22:43.744Z,15.67
2023-07-04T06:25:12.213Z,15.74
2023-07-04T06:27:45.209Z,15.83
2023-07-04T06:30:16.461Z,15.82
2023-07-04T06:32:45.490Z,15.84
2023-07-04T06:35:14.034Z,15.79
2023-07-04T06:37:42.786Z,15.90
2023-07-04T06:40:12.910Z,16.09
2023-07-04T06:42:42.264Z,16.24
2023-07-04T06:45:11.422Z,16.16
2023-07-04T06:47:41.693Z,16.13
2023-07-04T06:50:11.215Z,16.32
2023-07-04T06:52:40.665Z,16.12
2023-07-04T06:55:09.982Z,15.93
2023-07-04T06:57:38.758Z,16.11
2023-07-04T07:00:08.758Z,16.29
2023-07-04T07:02:37.482Z,16.52
2023-07-04T07:05:08.323Z,16.46
2023-07-04T07:07:37.018Z,16.51
2023-07-04T07:10:05.877Z,16.65
2023-07-04T07:12:34.689Z,16.67
2023-07-04T07:15:03.427Z,16.71
2023-07-04T07:17:36.397Z,16.87
2023-07-04T07:20:09.883Z,16.83
2023-07-04T07:22:38.666Z,16.85
2023-07-04T07:25:08.326Z,16.77
2023-07-04T07:27:37.154Z,16.72
2023-07-04T07:30:06.853Z,16.80
2023-07-04T07:32:35.622Z,16.85
2023-07-04T07:35:04.406Z,16.76
2023-07-04T07:37:34.568Z,16.59
2023-07-04T07:40:05.178Z,16.59
2023-07-04T07:42:34.132Z,16.61
2023-07-04T07:45:02.803Z,16.33
2023-07-04T07:47:31.622Z,16.17
2023-07-04T07:50:00.401Z,16.35
2023-07-04T07:52:29.128Z,16.63
2023-07-04T07:54:59.305Z,16.83
2023-07-04T07:57:28.082Z,16.94
2023-07-04T07:59:56.719Z,17.07
2023-07-04T08:02:25.469Z,17.24
2023-07-04T08:04:54.046Z,17.41
2023-07-04T08:07:23.034Z,17.57
2023-07-04T08:09:51.630Z,17.63
2023-07-04T08:12:21.852Z,17.81
2023-07-04T08:14:51.488Z,17.78
2023-07-04T08:17:22.211Z,17.76
2023-07-04T08:19:50.808Z,17.57
2023-07-04T08:22:19.451Z,17.69
2023-07-04T08:24:48.291Z,18.00
2023-07-04T08:27:17.152Z,17.78
2023-07-04T08:29:50.112Z,17.53
2023-07-04T08:32:19.954Z,17.28
2023-07-04T08:34:48.802Z,17.09
2023-07-04T08:37:18.773Z,16.90
2023-07-04T08:39:47.636Z,16.73
2023-07-04T08:42:19.741Z,16.59
2023-07-04T08:44:56.430Z,16.56
2023-07-04T08:47:27.857Z,16.55
2023-07-04T08:49:59.689Z,16.65
2023-07-04T08:52:33.793Z,16.72
2023-07-04T08:55:02.631Z,17.02
2023-07-04T08:57:40.995Z,17.31
2023-07-04T09:00:14.816Z,17.50
2023-07-04T09:03:13.512Z,17.71
2023-07-04T09:05:51.640Z,17.82
2023-07-04T09:08:31.196Z,18.24
2023-07-04T09:11:04.314Z,18.44
2023-07-04T09:13:37.011Z,18.57
2023-07-04T09:16:10.117Z,18.56
2023-07-04T09:18:48.584Z,18.14
2023-07-04T09:21:20.373Z,17.89
2023-07-04T09:23:51.630Z,17.70
2023-07-04T09:26:23.136Z,17.35
2023-07-04T09:28:54.014Z,17.03
2023-07-04T09:31:25.250Z,16.35
2023-07-04T09:33:55.656Z,15.77
2023-07-04T09:36:30.404Z,15.49
2023-07-04T09:39:00.588Z,15.03
2023-07-04T09:41:32.836Z,14.75
2023-07-04T09:44:15.396Z,14.79
2023-07-04T09:46:52.204Z,14.82
2023-07-04T09:49:23.593Z,14.89
2023-07-04T09:52:07.015Z,14.90
2023-07-04T09:54:38.893Z,14.93
2023-07-04T09:57:24.340Z,15.01
2023-07-04T09:59:55.420Z,15.11
2023-07-04T10:02:35.556Z,15.21
2023-07-04T10:05:05.227Z,15.41
2023-07-04T10:07:33.842Z,15.61
2023-07-04T10:10:05.667Z,15.78
2023-07-04T10:12:43.426Z,16.04
2023-07-04T10:15:12.946Z,16.49
2023-07-04T10:17:43.088Z,16.97
2023-07-04T10:20:14.860Z,17.17
2023-07-04T10:22:49.982Z,17.28
2023-07-04T10:25:22.557Z,17.52
2023-07-04T10:27:55.121Z,17.55
2023-07-04T10:30:31.340Z,17.61
2023-07-04T10:33:06.254Z,17.44
2023-07-04T10:35:37.779Z,17.25
2023-07-04T10:38:17.218Z,17.22
2023-07-04T10:40:47.569Z,17.16
2023-07-04T10:43:27.468Z,17.12
2023-07-04T10:46:01.510Z,17.07
2023-07-04T10:48:36.020Z,16.94
2023-07-04T10:51:09.568Z,16.85
2023-07-04T10:53:38.738Z,16.75
2023-07-04T10:56:14.708Z,16.51
2023-07-04T10:58:46.944Z,16.25
2023-07-04T11:01:21.476Z,16.03
2023-07-04T11:03:59.208Z,15.93
2023-07-04T11:06:35.824Z,15.78
2023-07-04T11:09:07.410Z,15.96
2023-07-04T11:11:36.649Z,16.28
2023-07-04T11:14:08.743Z,16.55
2023-07-04T11:16:43.173Z,16.68
2023-07-04T11:19:17.366Z,16.75
2023-07-04T11:22:18.809Z,16.81
2023-07-04T11:24:53.422Z,16.69
2023-07-04T11:27:25.573Z,16.52
2023-07-04T11:29:57.116Z,16.64
2023-07-04T11:32:29.217Z,16.78
2023-07-04T11:35:16.517Z,16.84
2023-07-04T11:37:53.043Z,16.80
2023-07-04T11:40:26.850Z,16.88
2023-07-04T11:42:56.892Z,16.90
2023-07-04T11:45:26.539Z,16.97
2023-07-04T11:48:02.377Z,17.09
2023-07-04T11:50:36.951Z,17.13
2023-07-04T11:53:13.130Z,17.25
2023-07-04T11:55:42.006Z,17.25
2023-07-04T11:58:20.514Z,17.28
2023-07-04T12:01:09.081Z,17.29
2023-07-04T12:03:48.232Z,17.28
2023-07-04T12:06:43.388Z,17.26
2023-07-04T12:09:16.642Z,17.28
2023-07-04T12:11:50.812Z,17.22
2023-07-04T12:14:20.013Z,17.30
2023-07-04T12:16:48.969Z,17.62
2023-07-04T12:19:18.838Z,17.73
2023-07-04T12:21:51.070Z,17.67
2023-07-04T12:24:23.380Z,17.62
2023-07-04T12:26:56.596Z,17.67
2023-07-04T12:30:02.412Z,17.44
2023-07-04T12:32:19.723Z,17.11
2023-07-04T12:37:29.304Z,16.84
2023-07-04T12:40:03.958Z,16.99
2023-07-04T12:42:34.031Z,17.06
2023-07-04T12:45:09.828Z,17.01
2023-07-04T12:47:39.556Z,17.06
2023-07-04T12:50:11.267Z,17.04
2023-07-04T12:52:42.079Z,17.14
2023-07-04T12:55:24.365Z,17.17
2023-07-04T12:57:54.181Z,17.10
2023-07-04T13:00:28.680Z,17.24
2023-07-04T13:02:59.706Z,17.23
2023-07-04T13:05:38.225Z,17.21
2023-07-04T13:08:12.081Z,17.37
2023-07-04T13:10:41.745Z,17.20
2023-07-04T13:13:35.033Z,17.19
2023-07-04T13:16:15.022Z,17.11
2023-07-04T13:18:45.967Z,17.15
2023-07-04T13:21:27.303Z,17.10
2023-07-04T13:26:32.451Z,17.25
2023-07-04T13:34:17.179Z,17.54
2023-07-04T13:36:48.617Z,17.55
2023-07-04T13:41:52.978Z,17.62
2023-07-04T13:49:04.366Z,17.79
2023-07-04T13:51:34.289Z,17.78
2023-07-04T13:54:03.917Z,17.91
2023-07-04T13:56:32.669Z,17.94
2023-07-04T13:59:01.804Z,17.89
2023-07-04T14:06:35.422Z,17.76
2023-07-04T14:09:04.275Z,17.73
2023-07-04T14:11:32.887Z,17.79
2023-07-04T14:14:05.682Z,17.73
2023-07-04T14:16:42.646Z,17.70
2023-07-04T14:22:00.626Z,16.14
2023-07-04T14:24:29.457Z,15.08
2023-07-04T14:26:58.130Z,14.68
2023-07-04T14:29:26.728Z,14.38
2023-07-04T14:31:55.414Z,14.13
2023-07-04T14:34:24.217Z,13.81
2023-07-04T14:36:54.387Z,13.73
2023-07-04T14:39:23.274Z,13.65
2023-07-04T14:44:24.656Z,13.19
2023-07-04T14:46:55.092Z,13.16
2023-07-04T14:49:24.023Z,13.25
2023-07-04T14:51:54.269Z,13.26
2023-07-04T14:54:22.898Z,13.16
2023-07-04T14:56:51.923Z,13.29
2023-07-04T14:59:21.001Z,13.35
2023-07-04T15:01:49.741Z,13.46
2023-07-04T15:04:18.347Z,13.59
2023-07-04T15:06:47.038Z,13.75
2023-07-04T15:09:17.156Z,13.92
2023-07-04T15:11:45.772Z,14.02
2023-07-04T15:14:14.676Z,14.10
2023-07-04T15:16:43.471Z,14.11
2023-07-04T15:19:12.188Z,14.19
2023-07-04T15:21:40.732Z,14.25
2023-07-04T15:24:09.553Z,14.36
2023-07-04T15:26:39.685Z,14.36
2023-07-04T15:29:08.257Z,14.32
2023-07-04T15:31:36.894Z,14.34
2023-07-04T15:34:05.653Z,14.31
2023-07-04T15:36:34.436Z,14.31
2023-07-04T15:39:03.405Z,14.31
2023-07-04T15:41:32.093Z,14.17
2023-07-04T15:44:02.409Z,14.14
2023-07-04T15:46:31.143Z,14.33
2023-07-04T15:48:59.836Z,14.34
2023-07-04T15:51:28.588Z,14.39
2023-07-04T15:53:57.308Z,14.43
2023-07-04T15:56:26.373Z,14.46
2023-07-04T15:58:55.036Z,14.50
2023-07-04T16:01:25.659Z,14.42
2023-07-04T16:03:56.137Z,14.41
2023-07-04T16:06:25.482Z,14.43
2023-07-04T16:08:54.254Z,14.39
2023-07-04T16:11:22.926Z,14.41
2023-07-04T16:13:52.228Z,14.39
2023-07-04T16:16:21.216Z,14.29
2023-07-04T16:18:51.404Z,14.34
2023-07-04T16:21:20.152Z,14.19
2023-07-04T16:23:48.805Z,14.21
2023-07-04T16:26:20.384Z,14.22
2023-07-04T16:28:49.081Z,14.19
2023-07-04T16:31:17.812Z,14.25
2023-07-04T16:33:46.454Z,14.22
2023-07-04T16:36:16.652Z,14.26
2023-07-04T16:38:45.393Z,14.27
2023-07-04T16:41:15.283Z,14.15
2023-07-04T16:43:44.548Z,14.17
2023-07-04T16:46:13.332Z,14.22
2023-07-04T16:48:42.474Z,14.15
2023-07-04T16:51:10.988Z,14.18
2023-07-04T16:53:41.154Z,14.18
2023-07-04T16:56:10.372Z,14.08
2023-07-04T16:58:39.468Z,14.09
2023-07-04T17:01:08.296Z,14.04
2023-07-04T17:03:36.951Z,14.09
2023-07-04T17:06:08.125Z,14.07
2023-07-04T17:08:38.183Z,14.07
2023-07-04T17:11:09.889Z,14.09
2023-07-04T17:13:40.586Z,14.06
2023-07-04T17:16:10.227Z,14.11
2023-07-04T17:18:39.969Z,14.06
2023-07-04T17:21:10.531Z,14.09
2023-07-04T17:23:39.408Z,13.95
2023-07-04T17:26:09.580Z,14.02
2023-07-04T17:28:38.226Z,14.01
2023-07-04T17:31:08.647Z,13.94
2023-07-04T17:33:37.714Z,13.92
2023-07-04T17:36:09.270Z,13.95
2023-07-04T17:38:38.286Z,13.92
2023-07-04T17:41:11.090Z,13.92
2023-07-04T17:43:40.310Z,13.86
2023-07-04T17:46:11.365Z,13.88
2023-07-04T17:48:40.480Z,13.90
2023-07-04T17:51:11.138Z,13.92
2023-07-04T17:53:40.180Z,13.90
2023-07-04T17:56:12.368Z,13.92
2023-07-04T17:58:41.774Z,13.89
2023-07-04T18:01:12.430Z,13.91
2023-07-04T18:03:43.984Z,13.98
2023-07-04T18:06:14.391Z,14.02
2023-07-04T18:08:44.315Z,13.93
2023-07-04T18:11:17.555Z,13.82
2023-07-04T18:13:47.924Z,13.77
2023-07-04T18:16:17.562Z,13.71
2023-07-04T18:18:46.829Z,13.66
2023-07-04T18:21:19.090Z,13.60
2023-07-04T18:23:49.108Z,13.59
2023-07-04T18:26:20.350Z,13.51
2023-07-04T18:28:50.942Z,13.48
2023-07-04T18:31:28.767Z,13.52
2023-07-04T18:34:01.200Z,13.48
2023-07-04T18:36:33.332Z,13.47
2023-07-04T18:39:02.274Z,13.45
2023-07-04T18:41:35.927Z,13.41
2023-07-04T18:44:07.643Z,13.39
2023-07-04T18:46:37.569Z,13.32
2023-07-04T18:49:06.463Z,13.30
2023-07-04T18:51:36.794Z,13.29
2023-07-04T18:54:05.568Z,13.26
2023-07-04T18:56:41.596Z,13.41
2023-07-04T18:59:11.582Z,13.32
2023-07-04T19:01:40.405Z,13.26
2023-07-04T19:04:08.985Z,13.26
2023-07-04T19:06:39.392Z,13.27
2023-07-04T19:09:09.783Z,13.27
2023-07-04T19:11:43.587Z,13.23
2023-07-04T19:14:15.029Z,13.22
2023-07-04T19:16:47.671Z,13.17
2023-07-04T19:19:18.126Z,13.08
2023-07-04T19:21:53.445Z,12.98
2023-07-04T19:24:22.971Z,12.98
2023-07-04T19:26:53.676Z,12.96
2023-07-04T19:29:22.665Z,12.99
2023-07-04T19:31:52.455Z,13.03
2023-07-04T19:34:23.759Z,13.06
2023-07-04T19:36:54.984Z,12.98
2023-07-04T19:39:24.321Z,12.98
2023-07-04T19:41:55.082Z,12.99
2023-07-04T19:44:25.167Z,12.97
2023-07-04T19:46:54.215Z,13.09
2023-07-04T19:49:22.983Z,13.05
2023-07-04T19:51:51.584Z,12.96
2023-07-04T19:54:20.612Z,12.98
2023-07-04T19:56:53.361Z,13.17
2023-07-04T19:59:23.589Z,13.24
2023-07-04T20:01:52.597Z,13.18
2023-07-04T20:04:21.310Z,13.10
2023-07-04T20:06:49.916Z,12.99
2023-07-04T20:09:19.103Z,12.93
2023-07-04T20:11:47.657Z,12.91
2023-07-04T20:14:16.442Z,12.93
2023-07-04T20:16:46.464Z,13.05
2023-07-04T20:19:15.289Z,12.79
2023-07-04T20:21:43.943Z,12.56
2023-07-04T20:24:12.567Z,12.65
2023-07-04T20:26:41.224Z,12.60
2023-07-04T20:29:09.826Z,12.64
2023-07-04T20:31:40.016Z,12.71
2023-07-04T20:34:12.152Z,12.52
2023-07-04T20:36:40.872Z,12.63
2023-07-04T20:39:09.576Z,12.63
2023-07-04T20:41:38.305Z,12.66
2023-07-04T20:44:07.094Z,12.60
2023-07-04T20:46:35.840Z,12.61
2023-07-04T20:49:04.504Z,12.59
2023-07-04T20:51:34.730Z,12.35
2023-07-04T20:54:03.430Z,12.55
2023-07-04T20:56:32.267Z,12.38
2023-07-04T20:59:01.128Z,12.37
2023-07-04T21:01:29.677Z,12.33
2023-07-04T21:03:58.387Z,12.25
2023-07-04T21:06:27.154Z,12.21
2023-07-04T21:09:00.980Z,12.29
2023-07-04T21:11:30.128Z,12.25
2023-07-04T21:13:59.192Z,12.21
2023-07-04T21:16:28.245Z,12.22
2023-07-04T21:18:56.728Z,12.23
2023-07-04T21:21:25.523Z,12.22
2023-07-04T21:23:54.282Z,12.14
2023-07-04T21:26:24.322Z,12.08
2023-07-04T21:28:52.821Z,12.11
2023-07-04T21:31:21.559Z,12.04
2023-07-04T21:33:50.580Z,12.17
2023-07-04T21:36:19.502Z,12.10
2023-07-04T21:38:48.246Z,12.08
2023-07-04T21:41:17.883Z,12.12
2023-07-04T21:43:47.903Z,12.18
2023-07-04T21:46:16.678Z,12.22
2023-07-04T21:48:45.162Z,12.12
2023-07-04T21:51:13.777Z,12.04
2023-07-04T21:53:45.865Z,12.04
2023-07-04T21:56:14.803Z,11.97
2023-07-04T21:58:45.306Z,11.92
2023-07-04T22:01:15.325Z,11.92
2023-07-04T22:03:43.944Z,11.87
2023-07-04T22:06:14.611Z,11.99
2023-07-04T22:08:43.789Z,11.94
2023-07-04T22:11:14.196Z,11.82
2023-07-04T22:13:44.924Z,11.87
2023-07-04T22:16:16.785Z,11.82
2023-07-04T22:18:46.921Z,11.79
2023-07-04T22:21:16.067Z,11.81
2023-07-04T22:23:45.044Z,11.80
2023-07-04T22:26:14.193Z,11.72
2023-07-04T22:28:44.025Z,11.87
2023-07-04T22:31:16.220Z,11.77
2023-07-04T22:33:48.305Z,11.71
2023-07-04T22:36:17.168Z,11.70
2023-07-04T22:38:46.221Z,11.69
2023-07-04T22:41:14.850Z,11.66
2023-07-04T22:43:43.335Z,11.72
2023-07-04T22:46:13.566Z,11.71
2023-07-04T22:48:43.717Z,11.74
2023-07-04T22:51:12.327Z,11.68
2023-07-04T22:53:40.839Z,11.73
2023-07-04T22:56:10.361Z,11.76
2023-07-04T22:58:39.566Z,11.66
2023-07-04T23:01:09.904Z,11.63
2023-07-04T23:03:40.227Z,11.73
2023-07-04T23:06:12.342Z,11.61
2023-07-04T23:08:41.577Z,11.56
2023-07-04T23:11:10.297Z,11.55
2023-07-04T23:13:39.114Z,11.34
2023-07-04T23:16:10.305Z,11.38
2023-07-04T23:18:39.626Z,11.29
2023-07-04T23:21:10.009Z,11.24
2023-07-04T23:23:38.783Z,11.09
2023-07-04T23:26:11.878Z,11.04
2023-07-04T23:28:41.084Z,10.96
2023-07-04T23:31:11.415Z,11.15
2023-07-04T23:33:40.194Z,11.05
2023-07-04T23:36:10.423Z,10.96
2023-07-04T23:38:39.046Z,11.06
2023-07-04T23:41:07.868Z,11.03
2023-07-04T23:43:36.552Z,10.92
2023-07-04T23:46:05.693Z,10.92
2023-07-04T23:48:34.441Z,10.84
2023-07-04T23:51:03.236Z,10.79
2023-07-04T23:53:35.147Z,10.79
2023-07-04T23:56:03.922Z,10.83
2023-07-04T23:58:32.554Z,10.79
